Terminal Aerodrome Forecast
Issued by NWS King Salmon, AK

Home | Current Version | Previous Version | Text Only | Print | Product List | Glossary On
Versions: 1 2 3 4 5 6 7 8 9 10 11 12 13 14 15 16 17 18 19 20 21 22 23 24 25 26 27 28 29 30 31 32 33
765
FTAK31 PANC 060539
TAFAKN
TAF
PAKN 060539Z 0606/0706 06009KT P6SM -RA BKN040
     FM061400 VRB05KT P6SM VCSH SCT040 OVC060=

USA.gov is the U.S. government's official web portal to all federal, state and local government web resources and services.